Time;durP1;ratioP1;P1;durP2;ratioP2;P2;SDS_P1;SDS_P2;PMS_P1;PMS_P2;Temp;Humidity;BMP_temperature;BMP_pressure;BME280_temperature;BME280_humidity;BME280_pressure;Samples;Min_cycle;Max_cycle;Signal;HPM_P1;HPM_P2
2023/03/30 00:00:19;;;;;;;8.33;2.97;;;12.70;99.90;;;;;;4994938;28;20030;-64
2023/03/30 00:02:52;;;;;;;9.77;3.38;;;12.70;99.90;;;;;;4995251;28;20054;-63
2023/03/30 00:05:19;;;;;;;10.27;3.03;;;12.70;99.90;;;;;;5009363;28;20057;-65
2023/03/30 00:07:45;;;;;;;12.15;3.55;;;12.70;99.90;;;;;;5006119;28;20409;-63
2023/03/30 00:10:13;;;;;;;;;;;12.70;99.90;;;;;;4996383;28;20418;-64
2023/03/30 00:12:39;;;;;;;6.97;3.40;;;12.70;99.90;;;;;;4999030;28;19925;-64
2023/03/30 00:15:11;;;;;;;6.07;3.05;;;12.70;99.90;;;;;;5002409;28;20321;-65
2023/03/30 00:17:37;;;;;;;8.00;3.42;;;12.60;99.90;;;;;;4999159;28;20029;-64
2023/03/30 00:20:07;;;;;;;12.43;3.95;;;12.60;99.90;;;;;;4998824;28;20031;-65
2023/03/30 00:22:33;;;;;;;5.95;2.95;;;12.50;99.90;;;;;;4998664;28;20030;-64
2023/03/30 00:24:59;;;;;;;8.70;3.37;;;12.50;99.90;;;;;;4998857;28;20061;-64
2023/03/30 00:27:25;;;;;;;5.10;3.10;;;12.50;99.90;;;;;;4999057;28;20041;-65
2023/03/30 00:29:50;;;;;;;6.47;2.70;;;12.50;99.90;;;;;;5003110;28;20116;-63
2023/03/30 00:32:16;;;;;;;8.93;2.47;;;12.50;99.90;;;;;;5007680;28;20034;-63
2023/03/30 00:34:42;;;;;;;4.37;2.50;;;12.50;99.90;;;;;;4998231;28;20023;-63
2023/03/30 00:37:08;;;;;;;4.97;2.50;;;12.50;99.90;;;;;;5001799;28;20085;-64
2023/03/30 00:39:33;;;;;;;8.03;2.80;;;12.50;99.90;;;;;;4998344;28;20030;-63
2023/03/30 00:41:59;;;;;;;6.67;2.57;;;12.50;99.90;;;;;;4998407;28;20675;-63
2023/03/30 00:45:02;;;;;;;4.53;2.73;;;12.50;99.90;;;;;;4998439;28;20022;-83
2023/03/30 00:47:29;;;;;;;5.53;2.90;;;12.60;99.90;;;;;;4998436;28;20413;-63
2023/03/30 00:49:55;;;;;;;4.20;2.30;;;12.60;99.90;;;;;;4997869;28;20295;-64
2023/03/30 00:52:23;;;;;;;5.88;2.63;;;12.70;99.90;;;;;;4999812;28;20069;-63
2023/03/30 00:54:52;;;;;;;4.95;2.72;;;12.70;99.90;;;;;;4998113;28;20157;-64
2023/03/30 00:57:21;;;;;;;4.57;2.13;;;12.80;99.90;;;;;;4998278;28;20015;-82
2023/03/30 00:59:48;;;;;;;7.45;1.90;;;12.80;99.90;;;;;;4998336;28;20026;-63
2023/03/30 01:02:14;;;;;;;3.80;2.20;;;12.80;99.90;;;;;;4998055;28;20407;-63
2023/03/30 01:04:40;;;;;;;5.20;2.07;;;12.90;99.90;;;;;;4998517;28;20110;-65
2023/03/30 01:07:11;;;;;;;5.65;2.17;;;12.90;99.90;;;;;;4998879;28;20105;-64
2023/03/30 01:09:38;;;;;;;5.35;2.33;;;12.90;99.90;;;;;;4996807;28;20034;-64
2023/03/30 01:12:05;;;;;;;5.80;2.17;;;13.00;99.90;;;;;;4997546;28;22359;-63
2023/03/30 01:14:31;;;;;;;10.32;2.13;;;13.00;99.90;;;;;;5001818;28;20022;-64
2023/03/30 01:17:27;;;;;;;6.93;2.45;;;13.00;99.90;;;;;;4997745;28;20034;-64
2023/03/30 01:20:13;;;;;;;7.07;1.97;;;13.00;99.90;;;;;;4997575;28;20034;-64
2023/03/30 01:23:18;;;;;;;8.77;2.58;;;13.00;99.90;;;;;;4997769;28;20264;-64
2023/03/30 01:25:50;;;;;;;3.25;1.85;;;13.10;99.90;;;;;;4997681;28;20034;-64
2023/03/30 01:28:22;;;;;;;6.60;1.98;;;13.20;99.90;;;;;;4997842;28;20265;-63
2023/03/30 01:31:26;;;;;;;10.95;1.92;;;13.20;99.90;;;;;;4997391;28;20025;-64
2023/03/30 01:34:20;;;;;;;6.30;2.00;;;13.20;99.90;;;;;;4997924;28;20030;-65
2023/03/30 01:37:06;;;;;;;9.82;2.00;;;13.20;99.90;;;;;;4997582;28;20022;-65
2023/03/30 01:39:40;;;;;;;9.27;1.87;;;13.20;99.90;;;;;;5005514;28;20084;-64
2023/03/30 01:42:15;;;;;;;7.13;1.83;;;13.20;99.90;;;;;;4997364;28;20029;-63
2023/03/30 01:45:09;;;;;;;5.00;1.85;;;13.20;99.90;;;;;;4979913;28;20022;-63
2023/03/30 01:47:39;;;;;;;8.65;1.70;;;13.10;99.90;;;;;;4997701;28;20072;-63
2023/03/30 01:50:12;;;;;;;4.88;1.77;;;13.10;99.90;;;;;;4997029;28;20291;-65
2023/03/30 01:52:47;;;;;;;10.27;1.83;;;13.00;99.90;;;;;;4997166;28;20026;-76
2023/03/30 01:55:39;;;;;;;6.43;1.63;;;12.90;99.90;;;;;;4999812;28;20337;-64
2023/03/30 01:58:09;;;;;;;6.60;2.00;;;12.80;99.90;;;;;;4997216;28;20029;-62
2023/03/30 02:00:40;;;;;;;9.90;1.75;;;12.80;99.90;;;;;;4997146;28;20046;-63
2023/03/30 02:03:26;;;;;;;5.80;1.83;;;12.70;99.90;;;;;;4997391;28;20030;-62
2023/03/30 02:05:58;;;;;;;4.47;1.70;;;12.70;99.90;;;;;;4996916;28;20054;-64
2023/03/30 02:08:28;;;;;;;7.65;2.20;;;12.70;99.90;;;;;;4996629;28;20054;-63
2023/03/30 02:10:57;;;;;;;4.20;1.65;;;12.70;99.90;;;;;;4997949;28;20030;-63
2023/03/30 02:13:26;;;;;;;8.50;1.67;;;12.70;99.90;;;;;;5010090;28;20052;-63
2023/03/30 02:15:58;;;;;;;10.07;1.90;;;12.60;99.90;;;;;;5001577;28;20018;-63
2023/03/30 02:18:24;;;;;;;4.13;1.88;;;12.60;99.90;;;;;;4997122;28;20018;-64
2023/03/30 02:20:50;;;;;;;5.80;1.63;;;12.60;99.90;;;;;;4999947;28;20425;-63
2023/03/30 02:23:20;;;;;;;4.13;1.73;;;12.50;99.90;;;;;;4996256;28;20113;-63
2023/03/30 02:25:45;;;;;;;7.10;2.00;;;12.50;99.90;;;;;;4998088;28;20030;-63
2023/03/30 02:28:11;;;;;;;8.53;1.50;;;12.50;99.90;;;;;;4996685;28;20414;-63
2023/03/30 02:30:43;;;;;;;6.67;1.77;;;12.50;99.90;;;;;;4996133;28;20053;-63
2023/03/30 02:33:21;;;;;;;13.30;1.63;;;12.50;99.90;;;;;;4995831;28;20430;-83
2023/03/30 02:36:18;;;;;;;7.90;1.88;;;12.50;99.90;;;;;;4996272;28;20030;-64
2023/03/30 02:38:53;;;;;;;7.20;1.92;;;12.50;99.90;;;;;;4996210;28;20432;-63
2023/03/30 02:41:59;;;;;;;6.13;1.67;;;12.50;99.90;;;;;;5001712;28;20034;-64
2023/03/30 02:44:31;;;;;;;3.90;1.40;;;12.50;99.90;;;;;;4997597;28;20034;-65
2023/03/30 02:47:07;;;;;;;8.65;2.08;;;12.60;99.90;;;;;;4996497;28;20027;-65
2023/03/30 02:49:48;;;;;;;11.00;1.95;;;12.60;99.90;;;;;;4995751;28;20311;-63
2023/03/30 02:52:20;;;;;;;8.02;2.30;;;12.60;99.90;;;;;;4999494;28;20030;-65
2023/03/30 02:54:56;;;;;;;6.55;1.80;;;12.60;99.90;;;;;;5009097;28;20081;-64
2023/03/30 02:57:45;;;;;;;5.30;1.92;;;12.60;99.90;;;;;;5009184;28;20029;-63
2023/03/30 03:00:17;;;;;;;13.07;2.53;;;12.60;99.90;;;;;;5004162;28;20034;-63
2023/03/30 03:02:50;;;;;;;6.13;1.90;;;12.60;99.90;;;;;;5014886;28;20053;-64
2023/03/30 03:05:17;;;;;;;7.43;2.13;;;12.70;99.90;;;;;;5003281;28;20026;-63
2023/03/30 03:07:43;;;;;;;5.22;2.00;;;12.60;99.90;;;;;;5008201;28;20037;-63
2023/03/30 03:10:09;;;;;;;7.63;2.33;;;12.60;99.90;;;;;;4995473;28;20112;-63
2023/03/30 03:12:35;;;;;;;8.07;2.70;;;12.50;99.90;;;;;;4995667;28;20506;-85
2023/03/30 03:15:02;;;;;;;6.78;2.22;;;12.50;99.90;;;;;;4995445;28;20109;-63
2023/03/30 03:17:33;;;;;;;;;;;12.50;99.90;;;;;;4996391;28;20026;-64
2023/03/30 03:20:01;;;;;;;3.97;1.58;;;12.50;99.90;;;;;;4980683;28;20282;-63
2023/03/30 03:22:27;;;;;;;5.80;2.38;;;12.50;99.90;;;;;;4978363;28;20034;-62
2023/03/30 03:24:53;;;;;;;8.70;2.37;;;12.50;99.90;;;;;;5009719;28;20045;-64
2023/03/30 03:27:19;;;;;;;9.65;2.28;;;12.50;99.90;;;;;;4995545;28;20109;-63
2023/03/30 03:29:44;;;;;;;5.03;2.08;;;12.30;99.90;;;;;;4999012;28;20038;-63
2023/03/30 03:32:10;;;;;;;6.77;1.97;;;12.40;99.90;;;;;;4995393;28;20026;-63
2023/03/30 03:34:36;;;;;;;5.10;2.20;;;12.40;99.90;;;;;;4995896;28;20467;-63
2023/03/30 03:37:01;;;;;;;4.73;2.33;;;12.30;99.90;;;;;;4995235;28;20089;-63
2023/03/30 03:39:27;;;;;;;6.07;1.83;;;12.30;99.90;;;;;;4995581;28;20073;-64
2023/03/30 03:41:53;;;;;;;8.83;2.13;;;12.30;99.90;;;;;;4995214;28;20037;-63
2023/03/30 03:44:18;;;;;;;4.17;2.10;;;12.30;99.90;;;;;;4995577;28;20026;-63
2023/03/30 03:46:44;;;;;;;5.23;1.97;;;12.30;99.90;;;;;;4999606;28;20030;-83
2023/03/30 03:49:10;;;;;;;8.90;2.30;;;12.20;99.90;;;;;;4999116;28;20077;-65
2023/03/30 03:51:37;;;;;;;9.75;1.70;;;12.20;99.90;;;;;;4999452;28;20026;-63
2023/03/30 03:54:02;;;;;;;7.57;1.90;;;12.20;99.90;;;;;;4994248;28;20317;-63
2023/03/30 03:56:28;;;;;;;3.90;2.23;;;12.20;99.90;;;;;;4999656;28;20075;-63
2023/03/30 03:58:54;;;;;;;5.40;1.73;;;12.10;99.90;;;;;;4999021;28;20030;-63
2023/03/30 04:01:19;;;;;;;6.50;1.97;;;12.10;99.90;;;;;;4999504;28;20030;-65
2023/03/30 04:03:45;;;;;;;6.90;1.80;;;12.10;99.90;;;;;;4993710;28;20092;-63
2023/03/30 04:06:11;;;;;;;4.90;2.10;;;12.10;99.90;;;;;;5001068;28;20038;-64
2023/03/30 04:08:36;;;;;;;5.43;1.60;;;12.10;99.90;;;;;;4999265;28;20112;-64
2023/03/30 04:11:08;;;;;;;6.57;1.70;;;12.10;99.90;;;;;;4998617;28;20035;-64
2023/03/30 04:13:34;;;;;;;7.57;2.13;;;12.10;99.90;;;;;;4998990;28;20049;-84
2023/03/30 04:16:00;;;;;;;3.28;1.38;;;12.20;99.90;;;;;;4995209;28;20026;-64
2023/03/30 04:18:33;;;;;;;4.43;1.60;;;12.20;99.90;;;;;;5005781;28;20030;-63
2023/03/30 04:21:01;;;;;;;8.40;1.90;;;12.20;99.90;;;;;;4987594;28;20082;-78
2023/03/30 04:23:36;;;;;;;4.75;2.38;;;12.30;99.90;;;;;;4998786;28;20026;-64
2023/03/30 04:26:06;;;;;;;8.50;2.25;;;12.30;99.90;;;;;;4998882;28;20035;-64
2023/03/30 04:28:34;;;;;;;8.20;2.00;;;12.30;99.90;;;;;;5003717;28;20025;-64
2023/03/30 04:31:02;;;;;;;6.72;1.90;;;12.30;99.90;;;;;;4998704;28;20113;-64
2023/03/30 04:33:28;;;;;;;5.40;1.83;;;12.40;99.90;;;;;;4998130;28;20110;-64
2023/03/30 04:35:54;;;;;;;8.57;1.85;;;12.40;99.90;;;;;;4998562;28;20451;-64
2023/03/30 04:38:23;;;;;;;8.68;1.70;;;12.40;99.90;;;;;;4999231;28;20034;-65
2023/03/30 04:40:52;;;;;;;9.52;2.10;;;12.40;99.90;;;;;;5003333;28;20053;-63
2023/03/30 04:43:19;;;;;;;5.78;1.55;;;12.50;99.90;;;;;;5006769;28;20404;-79
2023/03/30 04:45:52;;;;;;;8.98;1.77;;;12.40;99.90;;;;;;4998363;28;20033;-64
2023/03/30 04:48:19;;;;;;;6.43;1.75;;;12.30;99.90;;;;;;5002998;28;20041;-64
2023/03/30 04:50:48;;;;;;;10.00;2.05;;;12.30;99.90;;;;;;4998045;28;20039;-82
2023/03/30 04:53:15;;;;;;;8.43;1.90;;;12.30;99.90;;;;;;4998279;28;20046;-65
2023/03/30 04:55:41;;;;;;;8.95;2.13;;;12.20;99.90;;;;;;4997885;28;20026;-63
2023/03/30 04:58:10;;;;;;;17.38;2.17;;;12.20;99.90;;;;;;4997299;28;20069;-64
2023/03/30 05:00:36;;;;;;;10.32;1.80;;;12.20;99.90;;;;;;4998061;28;20026;-64
2023/03/30 05:03:03;;;;;;;11.75;2.17;;;12.20;99.90;;;;;;5000917;28;20038;-63
2023/03/30 05:05:28;;;;;;;10.05;2.15;;;12.20;99.90;;;;;;4997930;28;20034;-63
2023/03/30 05:07:54;;;;;;;8.43;2.03;;;12.20;99.90;;;;;;4997885;28;20326;-78
2023/03/30 05:10:20;;;;;;;9.93;2.13;;;12.10;99.90;;;;;;4998174;28;20058;-64
2023/03/30 05:12:47;;;;;;;10.17;2.83;;;12.10;99.90;;;;;;4999753;28;20073;-64
2023/03/30 05:15:13;;;;;;;9.10;2.05;;;12.00;99.90;;;;;;5009346;28;20050;-64
2023/03/30 05:17:39;;;;;;;23.65;2.58;;;11.90;99.90;;;;;;4998187;28;20084;-64
2023/03/30 05:20:09;;;;;;;12.13;2.57;;;11.80;99.90;;;;;;4997975;28;20026;-65
2023/03/30 05:22:35;;;;;;;6.80;1.95;;;11.70;99.90;;;;;;4997850;28;20030;-64
2023/03/30 05:25:02;;;;;;;16.67;3.03;;;11.60;99.90;;;;;;4997347;28;20085;-65
2023/03/30 05:27:27;;;;;;;19.10;4.05;;;11.50;99.90;;;;;;4997664;28;20073;-64
2023/03/30 05:29:54;;;;;;;17.23;2.93;;;11.50;99.90;;;;;;4997544;28;20318;-64
2023/03/30 05:32:20;;;;;;;10.05;2.40;;;11.50;99.90;;;;;;5000080;28;20083;-64
2023/03/30 05:34:47;;;;;;;16.38;3.10;;;11.40;99.90;;;;;;5005807;28;20067;-64
2023/03/30 05:37:13;;;;;;;13.27;2.90;;;11.30;99.90;;;;;;4997132;28;20019;-63
2023/03/30 05:39:40;;;;;;;14.60;3.45;;;11.30;99.90;;;;;;4997396;28;20030;-63
2023/03/30 05:42:06;;;;;;;18.27;2.95;;;11.30;99.90;;;;;;4997225;28;20026;-64
2023/03/30 05:44:32;;;;;;;17.05;3.53;;;11.20;99.90;;;;;;4997322;28;20310;-65
2023/03/30 05:46:58;;;;;;;16.88;3.88;;;11.20;99.90;;;;;;4997496;28;20351;-63
2023/03/30 05:49:25;;;;;;;19.48;3.72;;;11.20;99.90;;;;;;5005986;28;20409;-66
2023/03/30 05:51:50;;;;;;;15.35;3.13;;;11.20;99.90;;;;;;4997259;28;20058;-64
2023/03/30 05:54:16;;;;;;;20.33;3.20;;;11.10;99.90;;;;;;4979771;28;20072;-63
2023/03/30 05:56:42;;;;;;;16.23;3.33;;;11.20;99.90;;;;;;4997289;28;20022;-63
2023/03/30 05:59:09;;;;;;;16.40;2.20;;;11.20;99.90;;;;;;4996693;28;20022;-64
2023/03/30 06:01:35;;;;;;;19.17;3.25;;;11.20;99.90;;;;;;4997056;28;20018;-64
2023/03/30 06:04:01;;;;;;;17.65;3.10;;;11.20;99.90;;;;;;5003738;28;20417;-63
2023/03/30 06:06:27;;;;;;;19.90;3.28;;;11.20;99.90;;;;;;4997300;28;20057;-64
2023/03/30 06:08:53;;;;;;;14.30;2.90;;;11.20;99.90;;;;;;4996796;28;20409;-63
2023/03/30 06:11:18;;;;;;;15.53;3.20;;;11.20;99.90;;;;;;5000423;28;20022;-64
2023/03/30 06:13:44;;;;;;;13.90;3.73;;;11.20;99.90;;;;;;5006516;28;20041;-64
2023/03/30 06:16:11;;;;;;;12.65;2.53;;;11.20;99.90;;;;;;4996719;28;20030;-64
2023/03/30 06:18:37;;;;;;;12.27;2.55;;;11.30;99.90;;;;;;4987066;28;20381;-63
2023/03/30 06:21:07;;;;;;;13.27;2.37;;;11.40;99.90;;;;;;5014647;28;20476;-63
2023/03/30 06:23:35;;;;;;;15.98;3.33;;;11.50;99.90;;;;;;4996481;28;20030;-71
2023/03/30 06:26:02;;;;;;;27.15;3.92;;;11.60;99.90;;;;;;4988445;28;20030;-64
2023/03/30 06:28:28;;;;;;;;;;;11.60;99.90;;;;;;5001084;28;20022;-83
2023/03/30 06:30:54;;;;;;;32.20;3.20;;;11.60;99.90;;;;;;5004279;28;19915;-74
2023/03/30 06:33:20;;;;;;;20.13;3.33;;;11.60;99.90;;;;;;5001699;28;20197;-77
2023/03/30 06:35:47;;;;;;;13.37;2.60;;;11.60;99.90;;;;;;5017586;28;20029;-79
2023/03/30 06:38:14;;;;;;;10.48;2.50;;;11.60;99.90;;;;;;5004869;28;20345;-83
2023/03/30 06:40:40;;;;;;;17.73;3.92;;;11.60;99.90;;;;;;4996477;28;20026;-77
2023/03/30 06:43:07;;;;;;;30.47;4.10;;;11.60;99.90;;;;;;5006286;28;20053;-74
2023/03/30 06:45:33;;;;;;;21.55;3.25;;;11.60;99.90;;;;;;4991107;28;20030;-80
2023/03/30 06:47:58;;;;;;;20.03;3.50;;;11.60;99.90;;;;;;4995332;28;20038;-85
2023/03/30 06:50:24;;;;;;;14.67;3.30;;;11.60;99.90;;;;;;4989243;28;20034;-77
2023/03/30 06:52:50;;;;;;;36.20;4.20;;;11.60;99.90;;;;;;4996351;28;20405;-79
2023/03/30 06:55:16;;;;;;;22.60;3.70;;;11.70;99.90;;;;;;4990863;28;20037;-77
2023/03/30 06:57:42;;;;;;;29.83;3.37;;;11.60;99.90;;;;;;5015373;28;20022;-79
2023/03/30 07:00:12;;;;;;;21.70;4.33;;;11.60;99.90;;;;;;5006134;28;20033;-79
2023/03/30 07:02:39;;;;;;;20.27;3.63;;;11.70;99.90;;;;;;4995836;28;20038;-80
2023/03/30 07:05:06;;;;;;;16.27;3.28;;;11.70;99.90;;;;;;4996124;28;20023;-77
2023/03/30 07:07:32;;;;;;;14.43;3.85;;;11.70;99.90;;;;;;4991982;28;20420;-75
2023/03/30 07:09:58;;;;;;;20.10;3.85;;;11.70;99.90;;;;;;4982382;28;20433;-77
2023/03/30 07:12:24;;;;;;;19.17;2.57;;;11.80;99.90;;;;;;4978473;28;20050;-77
2023/03/30 07:14:50;;;;;;;25.02;3.03;;;11.80;99.90;;;;;;4995343;28;20390;-80
2023/03/30 07:17:16;;;;;;;26.60;4.37;;;11.80;99.90;;;;;;4984967;28;20153;-79
2023/03/30 07:19:42;;;;;;;26.43;4.07;;;11.90;99.90;;;;;;4995468;28;20106;-75
2023/03/30 07:22:08;;;;;;;22.97;4.10;;;11.90;99.90;;;;;;4987406;28;20318;-82
2023/03/30 07:24:34;;;;;;;13.07;3.13;;;12.00;99.90;;;;;;5000160;28;20034;-75
2023/03/30 07:27:00;;;;;;;21.63;3.37;;;12.00;99.90;;;;;;4995377;28;20030;-80
2023/03/30 07:29:27;;;;;;;23.40;3.80;;;12.10;99.90;;;;;;4978543;28;20322;-80
2023/03/30 07:31:55;;;;;;;20.58;3.25;;;12.10;99.90;;;;;;4977826;28;20089;-74
2023/03/30 07:34:21;;;;;;;28.02;4.55;;;12.40;99.90;;;;;;4978409;28;20484;-80
2023/03/30 07:36:47;;;;;;;17.67;3.57;;;12.70;99.90;;;;;;4996070;28;20030;-82
2023/03/30 07:39:13;;;;;;;23.58;3.42;;;13.20;99.90;;;;;;4991928;28;20371;-83
2023/03/30 07:41:39;;;;;;;20.63;3.37;;;13.50;99.90;;;;;;4995710;28;20087;-79
2023/03/30 07:44:05;;;;;;;22.17;3.93;;;13.50;99.90;;;;;;4995127;28;20087;-83
2023/03/30 07:46:30;;;;;;;22.33;4.70;;;13.40;99.90;;;;;;4995799;28;20118;-81
2023/03/30 07:48:56;;;;;;;16.80;3.23;;;13.50;99.90;;;;;;4995746;28;20046;-80
2023/03/30 07:51:23;;;;;;;15.73;2.80;;;13.80;99.90;;;;;;4995409;28;20358;-79
2023/03/30 07:53:48;;;;;;;20.88;4.00;;;13.70;99.90;;;;;;4978057;28;20567;-80
2023/03/30 07:56:14;;;;;;;21.73;2.57;;;13.50;99.90;;;;;;4984002;28;20018;-78
2023/03/30 07:58:40;;;;;;;27.83;3.17;;;13.50;99.90;;;;;;5002935;28;20074;-74
2023/03/30 08:01:07;;;;;;;18.20;2.70;;;13.30;99.90;;;;;;4994853;28;20030;-77
2023/03/30 08:03:32;;;;;;;22.17;3.08;;;13.30;99.90;;;;;;4996628;28;20022;-79
2023/03/30 08:06:03;;;;;;;19.73;3.43;;;13.20;99.90;;;;;;4994946;28;20050;-79
2023/03/30 08:08:29;;;;;;;15.10;2.78;;;13.20;99.90;;;;;;4995118;28;20030;-79
2023/03/30 08:10:55;;;;;;;16.90;2.75;;;13.10;99.90;;;;;;4991088;28;20413;-79
2023/03/30 08:13:21;;;;;;;24.83;3.27;;;13.10;99.90;;;;;;4995072;28;20046;-77
2023/03/30 08:15:47;;;;;;;28.27;3.88;;;13.10;99.90;;;;;;5011226;28;20185;-77
2023/03/30 08:18:13;;;;;;;23.53;3.23;;;13.00;99.90;;;;;;4996745;28;20421;-73
2023/03/30 08:20:40;;;;;;;21.27;3.17;;;12.90;99.90;;;;;;4995263;28;20302;-77
2023/03/30 08:23:08;;;;;;;23.33;4.07;;;12.80;99.90;;;;;;4994654;28;20030;-79
2023/03/30 08:25:34;;;;;;;19.13;3.67;;;12.80;99.90;;;;;;4997049;28;20018;-82
2023/03/30 08:28:00;;;;;;;19.70;3.90;;;12.80;99.90;;;;;;5003372;28;20299;-74
2023/03/30 08:30:27;;;;;;;29.33;4.13;;;12.80;99.90;;;;;;4993260;28;20030;-80
2023/03/30 08:32:53;;;;;;;20.90;3.13;;;12.80;99.90;;;;;;5008729;28;20065;-79
2023/03/30 08:35:20;;;;;;;19.97;3.80;;;12.90;99.90;;;;;;4994763;28;20054;-68
2023/03/30 08:37:46;;;;;;;34.22;4.32;;;13.00;99.90;;;;;;4998584;28;20105;-77
2023/03/30 08:40:14;;;;;;;26.08;4.30;;;13.20;99.90;;;;;;5008666;28;20061;-77
2023/03/30 08:43:02;;;;;;;23.38;3.72;;;13.50;99.90;;;;;;4987320;28;20072;-79
2023/03/30 08:45:38;;;;;;;26.40;3.53;;;13.60;99.90;;;;;;5003360;28;20334;-79
2023/03/30 08:48:11;;;;;;;23.45;3.42;;;14.00;99.90;;;;;;4991867;28;20033;-81
2023/03/30 08:50:37;;;;;;;22.05;3.80;;;14.60;99.90;;;;;;4998234;28;20027;-78
2023/03/30 08:53:05;;;;;;;22.00;3.87;;;15.50;99.90;;;;;;4988499;28;20029;-77
2023/03/30 08:55:52;;;;;;;23.10;4.15;;;16.00;99.90;;;;;;4997090;28;20113;-77
2023/03/30 08:58:43;;;;;;;23.25;3.65;;;16.40;99.90;;;;;;4990083;28;20312;-80
2023/03/30 09:01:27;;;;;;;24.20;3.67;;;16.80;99.90;;;;;;5000012;28;20387;-70
2023/03/30 09:03:58;;;;;;;16.85;3.33;;;16.80;99.90;;;;;;5011254;28;20034;-79
2023/03/30 09:06:46;;;;;;;20.92;3.35;;;16.70;99.90;;;;;;4998241;28;20026;-80
2023/03/30 09:09:16;;;;;;;20.33;3.45;;;16.70;99.90;;;;;;4997779;28;20034;-79
2023/03/30 09:11:42;;;;;;;22.40;3.22;;;16.70;99.90;;;;;;4997836;28;20038;-77
2023/03/30 09:14:42;;;;;;;26.67;4.03;;;16.90;99.90;;;;;;4998374;28;20026;-80
2023/03/30 09:17:23;;;;;;;24.77;3.50;;;17.10;99.90;;;;;;4981853;28;20442;-69
2023/03/30 09:19:57;;;;;;;22.50;3.58;;;17.10;99.90;;;;;;5001828;28;20018;-81
2023/03/30 09:22:40;;;;;;;21.42;3.67;;;17.20;99.90;;;;;;5006206;28;20022;-78
2023/03/30 09:25:35;;;;;;;27.05;3.42;;;17.40;99.90;;;;;;4997493;28;20126;-78
2023/03/30 09:28:03;;;;;;;17.35;3.20;;;17.30;99.90;;;;;;4979282;28;20417;-77
2023/03/30 09:30:58;;;;;;;24.17;3.65;;;17.20;99.90;;;;;;4999093;28;20110;-75
2023/03/30 09:33:45;;;;;;;21.02;3.47;;;17.20;99.90;;;;;;5003332;28;20038;-78
2023/03/30 09:36:38;;;;;;;18.50;3.42;;;17.30;99.90;;;;;;4980320;28;20085;-78
2023/03/30 09:39:20;;;;;;;21.98;3.95;;;17.20;99.90;;;;;;5001950;28;20109;-77
2023/03/30 09:41:46;;;;;;;21.10;3.58;;;17.10;99.90;;;;;;5004342;28;20536;-78
2023/03/30 09:44:35;;;;;;;27.53;3.83;;;16.90;99.90;;;;;;4997855;28;20116;-75
2023/03/30 09:47:18;;;;;;;19.38;3.08;;;16.50;99.90;;;;;;4993275;28;20496;-70
2023/03/30 09:49:44;;;;;;;22.00;3.97;;;16.20;99.90;;;;;;4997185;28;20026;-80
2023/03/30 09:52:19;;;;;;;19.27;3.03;;;16.00;99.90;;;;;;4996910;28;20468;-73
2023/03/30 09:54:45;;;;;;;22.20;4.15;;;15.70;99.90;;;;;;4997381;28;20042;-77
2023/03/30 09:57:28;;;;;;;23.07;3.67;;;15.40;99.90;;;;;;4997245;28;20038;-76
2023/03/30 09:59:55;;;;;;;27.92;3.58;;;15.50;99.90;;;;;;5006888;28;20035;-72
2023/03/30 10:02:23;;;;;;;35.22;3.92;;;15.90;99.90;;;;;;4996638;28;20317;-79
2023/03/30 10:04:52;;;;;;;19.38;3.75;;;16.50;99.90;;;;;;4997131;28;20318;-84
2023/03/30 10:07:40;;;;;;;23.05;3.88;;;17.00;99.90;;;;;;4996935;28;20097;-63
2023/03/30 10:10:24;;;;;;;18.10;3.35;;;17.30;99.90;;;;;;4996842;28;20113;-76
2023/03/30 10:12:53;;;;;;;22.90;4.00;;;17.40;99.90;;;;;;4996177;28;20061;-74
2023/03/30 10:15:22;;;;;;;24.98;3.55;;;17.40;99.90;;;;;;4997999;28;20030;-82
2023/03/30 10:17:50;;;;;;;30.05;4.55;;;17.30;99.90;;;;;;4996303;28;20014;-78
2023/03/30 10:20:25;;;;;;;21.25;3.58;;;17.40;99.90;;;;;;4996801;28;20418;-77
2023/03/30 10:22:53;;;;;;;20.58;4.03;;;17.40;99.90;;;;;;4993643;28;20029;-74
2023/03/30 10:25:26;;;;;;;29.25;4.10;;;17.60;99.90;;;;;;4998799;28;20041;-75
2023/03/30 10:27:55;;;;;;;21.13;3.88;;;17.70;99.90;;;;;;4996547;28;20429;-75
2023/03/30 10:30:24;;;;;;;25.73;3.40;;;17.80;99.90;;;;;;4990811;28;20036;-72
2023/03/30 10:32:52;;;;;;;23.33;3.63;;;17.90;99.90;;;;;;4996300;28;20322;-75
2023/03/30 10:35:30;;;;;;;29.15;4.40;;;17.40;99.90;;;;;;5010021;28;20105;-74
2023/03/30 10:37:57;;;;;;;23.85;3.50;;;17.00;99.90;;;;;;4988184;28;20045;-78
2023/03/30 10:40:41;;;;;;;26.27;3.35;;;16.60;99.90;;;;;;5000322;28;20026;-77
2023/03/30 10:43:24;;;;;;;30.40;4.85;;;16.40;99.90;;;;;;4996549;28;20038;-76
2023/03/30 10:45:56;;;;;;;21.40;4.30;;;16.30;99.90;;;;;;5004741;28;20038;-73
2023/03/30 10:49:09;;;;;;;23.48;3.00;;;16.30;99.90;;;;;;4996229;28;20034;-73
2023/03/30 10:51:54;;;;;;;31.42;3.60;;;16.30;99.90;;;;;;4978742;28;20121;-76
2023/03/30 10:54:34;;;;;;;24.10;3.80;;;16.30;99.90;;;;;;4995929;28;20022;-77
2023/03/30 10:57:16;;;;;;;18.35;3.47;;;16.30;99.90;;;;;;5003862;28;20287;-75
2023/03/30 11:00:01;;;;;;;28.85;3.47;;;16.70;99.90;;;;;;4979075;28;20054;-77
2023/03/30 11:02:45;;;;;;;27.83;4.05;;;17.10;99.90;;;;;;4994365;28;20022;-74
2023/03/30 11:05:43;;;;;;;22.20;3.17;;;17.30;99.90;;;;;;4995913;28;20053;-71
2023/03/30 11:08:17;;;;;;;25.70;4.40;;;17.60;99.90;;;;;;4996083;28;20061;-78
2023/03/30 11:10:48;;;;;;;25.50;4.10;;;17.40;99.90;;;;;;4996899;28;20030;-72
2023/03/30 11:13:21;;;;;;;17.55;3.70;;;17.40;99.90;;;;;;5001379;28;20029;-79
2023/03/30 11:15:50;;;;;;;17.13;3.22;;;17.50;99.90;;;;;;4995966;28;20026;-79
2023/03/30 11:18:27;;;;;;;25.08;3.83;;;17.40;99.90;;;;;;4995441;28;20019;-78
2023/03/30 11:21:00;;;;;;;;;;;17.40;99.90;;;;;;4991687;28;20040;-79
2023/03/30 11:23:50;;;;;;;19.63;3.40;;;17.20;99.90;;;;;;4996457;28;19925;-76
2023/03/30 11:26:39;;;;;;;26.33;3.67;;;16.60;99.90;;;;;;5004102;28;20034;-74
2023/03/30 11:29:31;;;;;;;17.77;2.58;;;16.30;99.90;;;;;;4995054;28;20315;-78
2023/03/30 11:31:57;;;;;;;23.33;3.63;;;15.80;99.90;;;;;;4978765;28;20042;-85
2023/03/30 11:34:29;;;;;;;14.30;2.53;;;15.40;99.90;;;;;;4995503;28;20030;-76
2023/03/30 11:37:13;;;;;;;30.02;4.03;;;15.40;99.90;;;;;;4995561;28;20124;-79
2023/03/30 11:39:49;;;;;;;28.02;3.50;;;15.30;99.90;;;;;;4987649;28;20022;-79
2023/03/30 11:42:24;;;;;;;17.13;3.55;;;15.30;99.90;;;;;;4998076;28;20026;-81
2023/03/30 11:44:50;;;;;;;21.98;3.63;;;15.50;99.90;;;;;;4995566;28;20031;-68
2023/03/30 11:47:29;;;;;;;25.17;4.30;;;15.70;99.90;;;;;;4995053;28;20035;-79
2023/03/30 11:50:40;;;;;;;21.70;3.63;;;15.90;99.90;;;;;;4978097;28;20030;-73
2023/03/30 11:53:31;;;;;;;20.10;3.22;;;15.90;99.90;;;;;;4906954;29;20566;-77
2023/03/30 11:56:11;;;;;;;23.52;3.53;;;15.70;99.90;;;;;;4933266;29;20032;-73
2023/03/30 11:58:57;;;;;;;22.23;3.55;;;15.60;99.90;;;;;;4935466;29;20059;-76
2023/03/30 12:01:54;;;;;;;26.60;3.90;;;15.60;99.90;;;;;;4922541;29;20407;-75
2023/03/30 12:04:28;;;;;;;26.50;3.38;;;15.60;99.90;;;;;;4935250;29;20102;-73
2023/03/30 12:06:59;;;;;;;27.73;3.95;;;15.50;99.90;;;;;;4918731;29;20123;-72
2023/03/30 12:09:52;;;;;;;29.13;4.65;;;15.60;99.90;;;;;;4923819;29;20032;-74
2023/03/30 12:12:32;;;;;;;22.80;4.18;;;15.60;99.90;;;;;;4938969;29;20055;-66
2023/03/30 12:15:10;;;;;;;22.58;3.80;;;15.80;99.90;;;;;;4923054;29;20056;-74
2023/03/30 12:18:03;;;;;;;17.00;3.22;;;15.90;99.90;;;;;;4933501;29;20455;-76
2023/03/30 12:20:52;;;;;;;22.13;3.08;;;16.10;99.90;;;;;;4919859;29;20032;-83
2023/03/30 12:23:30;;;;;;;29.17;3.80;;;16.20;99.90;;;;;;4921090;29;20036;-77
2023/03/30 12:26:05;;;;;;;25.17;3.83;;;16.10;99.90;;;;;;4939076;29;20028;-77
2023/03/30 12:28:52;;;;;;;20.13;3.50;;;16.00;99.90;;;;;;4938590;29;20107;-80
2023/03/30 12:31:18;;;;;;;32.83;4.18;;;15.90;99.90;;;;;;4990329;28;20022;-76
2023/03/30 12:33:48;;;;;;;24.50;4.25;;;16.00;99.90;;;;;;4998608;28;20309;-65
2023/03/30 12:36:37;;;;;;;23.83;4.15;;;16.20;99.90;;;;;;4995667;28;20029;-77
2023/03/30 12:39:07;;;;;;;21.92;4.38;;;16.30;99.90;;;;;;4997348;28;20110;-70
2023/03/30 12:41:48;;;;;;;26.17;4.65;;;16.40;99.90;;;;;;4998725;28;20034;-75
2023/03/30 12:44:31;;;;;;;29.10;4.75;;;16.20;99.90;;;;;;4998980;28;20510;-76
2023/03/30 12:47:08;;;;;;;32.88;4.40;;;16.10;99.90;;;;;;5000546;28;20042;-78
2023/03/30 12:49:59;;;;;;;21.42;3.78;;;16.10;99.90;;;;;;4998442;28;20023;-77
2023/03/30 12:52:31;;;;;;;21.83;3.58;;;16.20;99.90;;;;;;4980488;28;20093;-78
2023/03/30 12:55:20;;;;;;;25.90;3.65;;;16.10;99.90;;;;;;4998504;28;20063;-74
2023/03/30 12:57:49;;;;;;;28.08;3.88;;;15.80;99.90;;;;;;4998954;28;20441;-78
2023/03/30 13:00:39;;;;;;;22.13;3.40;;;15.60;99.90;;;;;;5006786;28;20030;-75
2023/03/30 13:03:27;;;;;;;24.30;4.50;;;15.40;99.90;;;;;;4997040;28;20081;-73
2023/03/30 13:05:56;;;;;;;25.55;4.07;;;15.20;99.90;;;;;;4997850;28;20030;-78